createdAt,value
2022-10-13T00:00:14.351Z,3.78
2022-10-13T00:01:18.930Z,3.83
2022-10-13T00:02:21.456Z,3.40
2022-10-13T00:03:24.441Z,3.30
2022-10-13T00:04:27.522Z,3.55
2022-10-13T00:05:30.657Z,3.28
2022-10-13T00:06:32.790Z,3.88
2022-10-13T00:07:34.975Z,3.55
2022-10-13T00:08:38.251Z,3.55
2022-10-13T00:09:40.365Z,3.40
2022-10-13T00:10:42.972Z,3.78
2022-10-13T00:11:46.985Z,3.85
2022-10-13T00:12:49.642Z,3.22
2022-10-13T00:13:56.387Z,3.53
2022-10-13T00:14:58.589Z,3.92
2022-10-13T00:16:02.452Z,3.35
2022-10-13T00:17:06.098Z,3.20
2022-10-13T00:18:09.189Z,3.67
2022-10-13T00:19:14.936Z,2.95
2022-10-13T00:20:17.424Z,3.30
2022-10-13T00:21:23.269Z,3.28
2022-10-13T00:22:27.515Z,3.60
2022-10-13T00:23:29.642Z,3.40
2022-10-13T00:24:31.801Z,4.60
2022-10-13T00:25:33.925Z,4.00
2022-10-13T00:26:36.070Z,3.75
2022-10-13T00:27:42.478Z,3.30
2022-10-13T00:28:49.735Z,3.40
2022-10-13T00:29:54.342Z,3.20
2022-10-13T00:30:56.965Z,3.97
2022-10-13T00:31:59.045Z,2.85
2022-10-13T00:33:01.253Z,3.70
2022-10-13T00:34:03.439Z,3.40
2022-10-13T00:35:05.934Z,3.15
2022-10-13T00:36:08.352Z,4.18
2022-10-13T00:37:10.524Z,3.85
2022-10-13T00:38:13.396Z,5.20
2022-10-13T00:39:15.523Z,3.25
2022-10-13T00:40:17.666Z,4.13
2022-10-13T00:41:21.189Z,3.33
2022-10-13T00:42:26.148Z,5.32
2022-10-13T00:43:59.955Z,3.75
2022-10-13T00:45:07.308Z,2.95
2022-10-13T00:46:10.279Z,4.15
2022-10-13T00:47:12.486Z,3.33
2022-10-13T00:48:14.637Z,4.18
2022-10-13T00:49:16.787Z,4.30
2022-10-13T00:50:27.541Z,3.63
2022-10-13T00:51:33.621Z,3.65
2022-10-13T00:52:37.142Z,3.80
2022-10-13T00:53:40.526Z,3.22
2022-10-13T00:54:43.089Z,4.95
2022-10-13T00:55:47.520Z,4.13
2022-10-13T00:56:51.157Z,3.83
2022-10-13T00:57:55.818Z,3.95
2022-10-13T00:59:11.341Z,3.30
2022-10-13T01:00:16.663Z,3.25
2022-10-13T01:01:18.982Z,4.47
2022-10-13T01:02:22.566Z,2.78
2022-10-13T01:03:26.406Z,3.58
2022-10-13T01:04:34.305Z,3.90
2022-10-13T01:05:37.618Z,3.65
2022-10-13T01:06:41.131Z,2.95
2022-10-13T01:07:48.260Z,3.47
2022-10-13T01:08:50.401Z,3.72
2022-10-13T01:09:52.911Z,3.83
2022-10-13T01:11:01.684Z,3.65
2022-10-13T01:12:18.609Z,4.07
2022-10-13T01:13:37.467Z,4.15
2022-10-13T01:14:55.729Z,4.45
2022-10-13T01:16:07.991Z,4.22
2022-10-13T01:17:16.403Z,3.15
2022-10-13T01:18:32.626Z,3.80
2022-10-13T01:19:51.221Z,3.97
2022-10-13T01:21:08.686Z,3.42
2022-10-13T01:22:31.123Z,4.13
2022-10-13T01:23:47.637Z,2.95
2022-10-13T01:25:21.807Z,3.70
2022-10-13T01:26:47.413Z,3.92
2022-10-13T01:28:28.342Z,4.22
2022-10-13T01:29:52.123Z,4.30
2022-10-13T01:31:31.536Z,3.50
2022-10-13T01:32:51.248Z,3.13
2022-10-13T01:33:59.221Z,5.28
2022-10-13T01:35:14.471Z,4.07
2022-10-13T01:36:32.093Z,3.35
2022-10-13T01:38:03.304Z,3.72
2022-10-13T01:40:27.283Z,3.78
2022-10-13T01:41:36.885Z,4.30
2022-10-13T01:42:52.748Z,4.03
2022-10-13T01:44:13.035Z,3.33
2022-10-13T01:45:21.962Z,3.83
2022-10-13T01:46:29.532Z,3.78
2022-10-13T01:47:34.206Z,3.97
2022-10-13T01:48:39.482Z,3.90
2022-10-13T01:49:43.382Z,3.50
2022-10-13T01:50:48.065Z,5.47
2022-10-13T01:51:52.058Z,4.72
2022-10-13T01:52:55.352Z,3.28
2022-10-13T01:53:57.634Z,4.80
2022-10-13T01:55:06.601Z,3.70
2022-10-13T01:56:08.718Z,4.20
2022-10-13T01:57:47.234Z,4.72
2022-10-13T01:58:51.023Z,3.55
2022-10-13T01:59:53.212Z,4.05
2022-10-13T02:01:14.758Z,3.85
2022-10-13T02:02:46.400Z,3.88
2022-10-13T02:03:54.003Z,3.72
2022-10-13T02:05:01.034Z,3.88
2022-10-13T02:06:19.645Z,3.70
2022-10-13T02:07:33.831Z,4.72
2022-10-13T02:09:18.883Z,4.05
2022-10-13T02:10:33.483Z,5.82
2022-10-13T02:11:35.607Z,3.95
2022-10-13T02:12:51.474Z,4.15
2022-10-13T02:14:08.164Z,6.15
2022-10-13T02:15:14.359Z,3.92
2022-10-13T02:16:17.112Z,3.88
2022-10-13T02:17:19.627Z,4.05
2022-10-13T02:18:27.035Z,4.28
2022-10-13T02:19:30.928Z,4.07
2022-10-13T02:20:33.841Z,4.45
2022-10-13T02:21:36.140Z,3.92
2022-10-13T02:22:46.580Z,3.70
2022-10-13T02:23:48.819Z,3.63
2022-10-13T02:24:53.709Z,3.83
2022-10-13T02:25:59.192Z,3.80
2022-10-13T02:27:02.186Z,4.03
2022-10-13T02:28:05.504Z,4.10
2022-10-13T02:29:14.335Z,4.00
2022-10-13T02:30:25.128Z,6.15
2022-10-13T02:31:27.277Z,4.35
2022-10-13T02:32:29.761Z,3.97
2022-10-13T02:33:32.039Z,4.85
2022-10-13T02:34:34.130Z,3.63
2022-10-13T02:35:36.284Z,4.07
2022-10-13T02:36:39.642Z,4.30
2022-10-13T02:37:41.877Z,4.10
2022-10-13T02:38:45.268Z,4.70
2022-10-13T02:39:47.503Z,4.55
2022-10-13T02:40:52.143Z,4.57
2022-10-13T02:41:56.566Z,4.68
2022-10-13T02:42:58.811Z,4.25
2022-10-13T02:44:01.039Z,4.25
2022-10-13T02:45:10.210Z,4.47
2022-10-13T02:46:12.338Z,4.57
2022-10-13T02:47:14.496Z,5.20
2022-10-13T02:48:16.604Z,4.55
2022-10-13T02:49:18.719Z,4.70
2022-10-13T02:50:20.923Z,4.07
2022-10-13T02:51:25.989Z,4.35
2022-10-13T02:52:29.193Z,4.80
2022-10-13T02:53:31.593Z,4.30
2022-10-13T02:54:34.677Z,4.50
2022-10-13T02:55:36.895Z,4.72
2022-10-13T02:56:39.118Z,4.07
2022-10-13T02:57:41.222Z,3.70
2022-10-13T02:58:43.339Z,5.25
2022-10-13T02:59:45.886Z,4.63
2022-10-13T03:00:48.046Z,4.35
2022-10-13T03:01:50.256Z,4.20
2022-10-13T03:02:52.357Z,5.10
2022-10-13T03:03:54.557Z,4.85
2022-10-13T03:04:56.758Z,4.82
2022-10-13T03:05:58.965Z,4.75
2022-10-13T03:07:01.811Z,4.00
2022-10-13T03:08:04.578Z,4.47
2022-10-13T03:09:06.794Z,5.32
2022-10-13T03:10:09.233Z,5.20
2022-10-13T03:11:11.527Z,5.82
2022-10-13T03:12:13.646Z,6.07
2022-10-13T03:13:15.860Z,4.88
2022-10-13T03:14:18.087Z,4.80
2022-10-13T03:15:20.228Z,5.28
2022-10-13T03:16:24.116Z,5.03
2022-10-13T03:17:27.043Z,5.88
2022-10-13T03:18:30.118Z,5.00
2022-10-13T03:19:32.228Z,5.30
2022-10-13T03:20:35.175Z,4.53
2022-10-13T03:21:38.578Z,4.05
2022-10-13T03:22:40.743Z,4.93
2022-10-13T03:23:43.054Z,4.10
2022-10-13T03:24:45.388Z,5.13
2022-10-13T03:25:47.521Z,5.38
2022-10-13T03:26:49.807Z,4.57
2022-10-13T03:27:55.691Z,5.53
2022-10-13T03:28:57.972Z,4.97
2022-10-13T03:30:00.178Z,4.97
2022-10-13T03:31:08.264Z,5.88
2022-10-13T03:32:10.444Z,4.57
2022-10-13T03:33:12.932Z,5.53
2022-10-13T03:34:16.508Z,5.53
2022-10-13T03:35:18.690Z,4.75
2022-10-13T03:36:20.908Z,4.95
2022-10-13T03:37:25.494Z,6.43
2022-10-13T03:38:28.913Z,4.35
2022-10-13T03:39:31.066Z,5.10
2022-10-13T03:40:35.073Z,5.35
2022-10-13T03:41:37.292Z,5.38
2022-10-13T03:42:39.956Z,5.13
2022-10-13T03:43:43.750Z,4.75
2022-10-13T03:44:45.948Z,5.88
2022-10-13T03:45:58.983Z,3.85
2022-10-13T03:47:01.188Z,5.85
2022-10-13T03:48:03.488Z,5.45
2022-10-13T03:49:05.811Z,6.03
2022-10-13T03:50:08.755Z,6.53
2022-10-13T03:51:14.382Z,5.85
2022-10-13T03:52:20.554Z,5.78
2022-10-13T03:53:23.011Z,4.35
2022-10-13T03:54:25.201Z,5.47
2022-10-13T03:55:28.593Z,5.25
2022-10-13T03:56:30.861Z,4.68
2022-10-13T03:57:32.970Z,5.65
2022-10-13T03:58:35.189Z,5.60
2022-10-13T03:59:40.603Z,4.60
2022-10-13T04:00:42.765Z,5.43
2022-10-13T04:01:45.291Z,4.72
2022-10-13T04:02:49.570Z,4.55
2022-10-13T04:03:55.736Z,5.13
2022-10-13T04:04:57.946Z,5.55
2022-10-13T04:06:04.608Z,6.32
2022-10-13T04:07:08.273Z,4.93
2022-10-13T04:08:10.747Z,5.28
2022-10-13T04:09:13.065Z,6.20
2022-10-13T04:10:15.335Z,4.65
2022-10-13T04:11:18.816Z,5.25
2022-10-13T04:12:26.167Z,5.05
2022-10-13T04:13:29.043Z,5.63
2022-10-13T04:14:31.214Z,7.03
2022-10-13T04:15:40.357Z,5.22
2022-10-13T04:16:42.513Z,4.97
2022-10-13T04:17:44.660Z,5.85
2022-10-13T04:18:51.995Z,6.53
2022-10-13T04:19:54.148Z,5.80
2022-10-13T04:20:56.278Z,5.47
2022-10-13T04:21:58.390Z,6.47
2022-10-13T04:23:00.499Z,5.85
2022-10-13T04:24:04.104Z,5.80
2022-10-13T04:25:07.045Z,5.85
2022-10-13T04:26:17.191Z,6.50
2022-10-13T04:27:20.104Z,6.55
2022-10-13T04:28:22.355Z,5.72
2022-10-13T04:29:24.588Z,6.03
2022-10-13T04:30:27.251Z,6.57
2022-10-13T04:31:30.420Z,5.72
2022-10-13T04:32:32.940Z,5.85
2022-10-13T04:33:37.975Z,5.78
2022-10-13T04:34:40.198Z,5.38
2022-10-13T04:35:42.315Z,5.95
2022-10-13T04:36:44.427Z,5.80
2022-10-13T04:37:46.581Z,6.32
2022-10-13T04:38:49.358Z,6.32
2022-10-13T04:39:51.610Z,5.95
2022-10-13T04:40:53.782Z,6.40
2022-10-13T04:41:55.907Z,5.25
2022-10-13T04:42:58.371Z,6.65
2022-10-13T04:44:02.448Z,7.05
2022-10-13T04:45:04.999Z,5.78
2022-10-13T04:46:15.445Z,6.43
2022-10-13T04:47:17.568Z,5.72
2022-10-13T04:48:19.697Z,5.97
2022-10-13T04:49:21.967Z,5.78
2022-10-13T04:50:24.122Z,5.75
2022-10-13T04:51:33.528Z,6.13
2022-10-13T04:52:36.330Z,6.70
2022-10-13T04:53:38.755Z,6.75
2022-10-13T04:54:44.408Z,6.93
2022-10-13T04:55:46.523Z,5.63
2022-10-13T04:56:48.670Z,6.28
2022-10-13T04:57:50.767Z,5.30
2022-10-13T04:58:53.449Z,6.40
2022-10-13T04:59:55.574Z,5.95
2022-10-13T05:00:58.034Z,6.80
2022-10-13T05:02:00.801Z,6.35
2022-10-13T05:03:02.968Z,6.10
2022-10-13T05:04:05.918Z,6.75
2022-10-13T05:05:10.919Z,5.78
2022-10-13T05:06:18.537Z,7.40
2022-10-13T05:07:23.595Z,6.13
2022-10-13T05:08:26.056Z,6.10
2022-10-13T05:09:28.228Z,6.53
2022-10-13T05:10:34.679Z,6.60
2022-10-13T05:11:37.044Z,5.32
2022-10-13T05:12:39.183Z,6.57
2022-10-13T05:13:41.482Z,7.28
2022-10-13T05:14:43.625Z,6.63
2022-10-13T05:15:45.766Z,7.85
2022-10-13T05:16:49.627Z,6.50
2022-10-13T05:17:51.774Z,7.63
2022-10-13T05:18:55.280Z,6.68
2022-10-13T05:19:57.401Z,5.75
2022-10-13T05:21:07.205Z,7.63
2022-10-13T05:22:11.891Z,7.78
2022-10-13T05:23:17.384Z,6.95
2022-10-13T05:24:30.702Z,7.20
2022-10-13T05:25:35.277Z,7.15
2022-10-13T05:26:37.426Z,7.43
2022-10-13T05:27:39.654Z,7.03
2022-10-13T05:28:45.663Z,6.75
2022-10-13T05:29:47.855Z,7.53
2022-10-13T05:30:49.975Z,7.15
2022-10-13T05:31:52.146Z,7.47
2022-10-13T05:32:54.567Z,7.75
2022-10-13T05:33:57.422Z,6.47
2022-10-13T05:34:59.538Z,7.10
2022-10-13T05:36:13.622Z,7.53
2022-10-13T05:37:17.103Z,7.07
2022-10-13T05:38:23.747Z,7.20
2022-10-13T05:39:29.060Z,7.03
2022-10-13T05:40:31.201Z,6.40
2022-10-13T05:41:35.656Z,8.00
2022-10-13T05:42:41.674Z,6.90
2022-10-13T05:43:45.344Z,6.90
2022-10-13T05:44:47.512Z,5.82
2022-10-13T05:45:49.797Z,7.70
2022-10-13T05:46:55.034Z,8.52
2022-10-13T05:47:57.173Z,7.93
2022-10-13T05:48:59.311Z,7.07
2022-10-13T05:50:02.553Z,6.40
2022-10-13T05:51:20.727Z,6.45
2022-10-13T05:52:25.553Z,7.53
2022-10-13T05:53:32.256Z,7.28
2022-10-13T05:54:40.218Z,8.75
2022-10-13T05:55:43.052Z,7.90
2022-10-13T05:56:56.288Z,7.40
2022-10-13T05:57:58.522Z,7.70
2022-10-13T05:59:04.676Z,8.23
2022-10-13T06:00:13.495Z,7.68
2022-10-13T06:01:21.397Z,7.57
2022-10-13T06:02:26.726Z,7.25
2022-10-13T06:03:29.887Z,7.90
2022-10-13T06:04:37.526Z,7.18
2022-10-13T06:05:40.746Z,7.38
2022-10-13T06:06:42.958Z,6.97
2022-10-13T06:07:47.062Z,7.70
2022-10-13T06:08:50.903Z,7.95
2022-10-13T06:09:53.126Z,8.45
2022-10-13T06:10:55.428Z,7.70
2022-10-13T06:11:58.554Z,7.57
2022-10-13T06:13:00.747Z,7.15
2022-10-13T06:14:02.913Z,7.88
2022-10-13T06:15:05.561Z,8.23
2022-10-13T06:16:07.786Z,9.65
2022-10-13T06:17:09.935Z,8.63
2022-10-13T06:18:12.587Z,7.85
2022-10-13T06:19:14.769Z,8.60
2022-10-13T06:20:16.877Z,9.10
2022-10-13T06:21:19.026Z,7.00
2022-10-13T06:22:22.517Z,7.47
2022-10-13T06:23:25.732Z,7.10
2022-10-13T06:24:28.137Z,7.20
2022-10-13T06:25:30.538Z,6.88
2022-10-13T06:26:33.154Z,8.55
2022-10-13T06:27:35.442Z,8.57
2022-10-13T06:28:38.016Z,7.68
2022-10-13T06:29:40.245Z,8.15
2022-10-13T06:30:43.604Z,7.93
2022-10-13T06:31:45.720Z,9.35
2022-10-13T06:32:47.844Z,8.32
2022-10-13T06:33:50.075Z,7.68
2022-10-13T06:34:52.241Z,8.75
2022-10-13T06:35:54.389Z,7.95
2022-10-13T06:36:56.502Z,7.55
2022-10-13T06:37:58.653Z,8.15
2022-10-13T06:39:00.776Z,9.25
2022-10-13T06:40:03.409Z,8.85
2022-10-13T06:41:05.932Z,7.80
2022-10-13T06:42:11.471Z,8.50
2022-10-13T06:43:13.666Z,9.60
2022-10-13T06:44:18.455Z,9.00
2022-10-13T06:45:20.605Z,8.25
2022-10-13T06:46:22.775Z,8.77
2022-10-13T06:47:24.994Z,8.20
2022-10-13T06:48:30.013Z,8.73
2022-10-13T06:49:32.540Z,9.20
2022-10-13T06:50:35.145Z,9.15
2022-10-13T06:51:38.539Z,8.20
2022-10-13T06:52:40.746Z,10.07
2022-10-13T06:53:42.967Z,7.95
2022-10-13T06:54:45.364Z,8.68
2022-10-13T06:55:52.233Z,8.48
2022-10-13T06:56:54.662Z,7.78
2022-10-13T06:57:56.938Z,8.95
2022-10-13T06:58:59.278Z,8.38
2022-10-13T07:00:01.578Z,8.65
2022-10-13T07:01:04.921Z,7.75
2022-10-13T07:02:07.137Z,8.48
2022-10-13T07:03:10.761Z,8.65
2022-10-13T07:04:13.348Z,8.18
2022-10-13T07:05:15.573Z,8.48
2022-10-13T07:06:18.004Z,8.43
2022-10-13T07:07:20.131Z,8.10
2022-10-13T07:08:23.127Z,7.55
2022-10-13T07:09:25.311Z,7.53
2022-10-13T07:10:27.803Z,8.43
2022-10-13T07:11:30.117Z,8.35
2022-10-13T07:12:34.614Z,7.85
2022-10-13T07:13:37.663Z,8.02
2022-10-13T07:14:43.861Z,8.15
2022-10-13T07:15:46.434Z,8.27
2022-10-13T07:16:49.159Z,7.80
2022-10-13T07:17:53.886Z,9.82
2022-10-13T07:18:56.031Z,8.73
2022-10-13T07:19:58.666Z,7.68
2022-10-13T07:21:03.148Z,7.57
2022-10-13T07:22:05.288Z,8.00
2022-10-13T07:23:07.423Z,9.30
2022-10-13T07:24:11.606Z,7.93
2022-10-13T07:25:15.189Z,8.15
2022-10-13T07:26:17.605Z,8.35
2022-10-13T07:27:19.843Z,8.63
2022-10-13T07:28:26.111Z,8.00
2022-10-13T07:29:29.586Z,8.38
2022-10-13T07:30:31.747Z,9.57
2022-10-13T07:31:34.741Z,8.02
2022-10-13T07:32:37.227Z,8.77
2022-10-13T07:33:44.621Z,8.40
2022-10-13T07:34:46.863Z,8.13
2022-10-13T07:35:49.071Z,8.35
2022-10-13T07:36:51.337Z,8.45
2022-10-13T07:37:54.021Z,8.85
2022-10-13T07:38:56.395Z,8.63
2022-10-13T07:40:01.772Z,8.27
2022-10-13T07:41:11.509Z,7.60
2022-10-13T07:42:17.127Z,7.85
2022-10-13T07:43:19.323Z,8.23
2022-10-13T07:44:23.011Z,8.77
2022-10-13T07:45:25.639Z,8.30
2022-10-13T07:46:27.892Z,7.93
2022-10-13T07:47:30.078Z,9.63
2022-10-13T07:48:33.440Z,9.07
2022-10-13T07:49:37.530Z,9.27
2022-10-13T07:50:43.435Z,9.27
2022-10-13T07:51:48.674Z,8.55
2022-10-13T07:52:55.608Z,9.02
2022-10-13T07:53:58.319Z,9.70
2022-10-13T07:55:00.440Z,9.43
2022-10-13T07:56:05.182Z,8.13
2022-10-13T07:57:07.393Z,9.18
2022-10-13T07:58:10.099Z,8.50
2022-10-13T07:59:12.680Z,8.10
2022-10-13T08:00:15.082Z,8.25
2022-10-13T08:01:17.529Z,8.30
2022-10-13T08:02:20.386Z,8.15
2022-10-13T08:03:22.820Z,9.93
2022-10-13T08:04:25.535Z,8.38
2022-10-13T08:05:27.888Z,8.77
2022-10-13T08:06:30.137Z,9.02
2022-10-13T08:07:33.537Z,9.20
2022-10-13T08:08:36.476Z,9.63
2022-10-13T08:09:38.659Z,8.23
2022-10-13T08:10:40.905Z,8.13
2022-10-13T08:11:43.115Z,8.48
2022-10-13T08:12:45.424Z,9.07
2022-10-13T08:13:50.301Z,9.25
2022-10-13T08:15:00.501Z,9.20
2022-10-13T08:16:05.810Z,9.02
2022-10-13T08:17:07.950Z,9.20
2022-10-13T08:18:11.677Z,9.60
2022-10-13T08:19:15.401Z,8.65
2022-10-13T08:20:17.612Z,8.45
2022-10-13T08:22:44.373Z,8.52
2022-10-13T08:23:46.912Z,10.02
2022-10-13T08:24:56.138Z,9.25
2022-10-13T08:25:58.685Z,9.00
2022-10-13T08:27:00.813Z,9.20
2022-10-13T08:28:03.007Z,7.82
2022-10-13T08:29:22.325Z,9.38
2022-10-13T08:30:25.471Z,9.50
2022-10-13T08:31:27.979Z,7.97
2022-10-13T08:32:30.774Z,9.23
2022-10-13T08:33:32.910Z,8.15
2022-10-13T08:34:36.822Z,8.35
2022-10-13T08:35:39.248Z,8.70
2022-10-13T08:36:41.408Z,8.80
2022-10-13T08:37:43.509Z,8.40
2022-10-13T08:38:45.980Z,7.97
2022-10-13T08:39:48.954Z,8.70
2022-10-13T08:40:51.562Z,9.38
2022-10-13T08:41:55.401Z,7.68
2022-10-13T08:43:00.344Z,8.73
2022-10-13T08:46:09.570Z,7.47
2022-10-13T08:47:30.241Z,6.88
2022-10-13T08:48:36.781Z,9.35
2022-10-13T08:49:42.514Z,9.02
2022-10-13T08:50:47.617Z,8.70
2022-10-13T08:51:49.790Z,8.85
2022-10-13T08:53:02.779Z,7.40
2022-10-13T08:54:05.816Z,8.07
2022-10-13T08:55:17.672Z,8.35
2022-10-13T08:56:30.308Z,8.05
2022-10-13T08:57:32.422Z,8.68
2022-10-13T08:58:37.006Z,9.68
2022-10-13T08:59:39.985Z,8.90
2022-10-13T09:00:42.708Z,8.77
2022-10-13T09:01:54.497Z,8.40
2022-10-13T09:03:19.548Z,7.78
2022-10-13T09:04:30.018Z,8.05
2022-10-13T09:05:41.942Z,8.98
2022-10-13T09:06:53.012Z,9.30
2022-10-13T09:07:58.086Z,7.90
2022-10-13T09:09:07.429Z,8.45
2022-10-13T09:10:09.823Z,8.52
2022-10-13T09:11:12.987Z,8.57
2022-10-13T09:12:15.796Z,8.93
2022-10-13T09:13:19.713Z,8.90
2022-10-13T09:14:28.209Z,7.82
2022-10-13T09:15:30.345Z,9.13
2022-10-13T09:16:41.122Z,8.60
2022-10-13T09:18:08.196Z,8.38
2022-10-13T09:19:27.449Z,8.90
2022-10-13T09:20:29.634Z,9.27
2022-10-13T09:21:31.773Z,8.07
2022-10-13T09:22:36.776Z,9.07
2022-10-13T09:23:41.171Z,8.30
2022-10-13T09:24:44.348Z,9.05
2022-10-13T09:25:58.590Z,8.90
2022-10-13T09:27:11.613Z,8.80
2022-10-13T09:28:27.839Z,8.48
2022-10-13T09:29:30.088Z,8.23
2022-10-13T09:30:36.763Z,8.48
2022-10-13T09:31:38.892Z,9.73
2022-10-13T09:32:43.905Z,8.30
2022-10-13T09:33:46.751Z,7.97
2022-10-13T09:34:51.541Z,8.98
2022-10-13T09:35:56.271Z,9.13
2022-10-13T09:37:04.427Z,8.10
2022-10-13T09:38:20.280Z,8.73
2022-10-13T09:39:22.749Z,8.43
2022-10-13T09:40:24.980Z,8.88
2022-10-13T09:41:27.152Z,9.23
2022-10-13T09:42:31.735Z,9.90
2022-10-13T09:43:41.395Z,7.47
2022-10-13T09:44:43.595Z,8.32
2022-10-13T09:45:45.814Z,8.25
2022-10-13T09:46:52.399Z,7.82
2022-10-13T09:48:05.658Z,8.80
2022-10-13T09:49:32.055Z,8.63
2022-10-13T09:50:35.915Z,7.90
2022-10-13T09:51:42.535Z,8.88
2022-10-13T09:53:26.571Z,7.70
2022-10-13T09:54:38.540Z,8.63
2022-10-13T09:55:41.291Z,8.90
2022-10-13T09:56:54.689Z,8.95
2022-10-13T09:58:05.802Z,8.60
2022-10-13T09:59:19.795Z,8.25
2022-10-13T10:00:23.474Z,9.00
2022-10-13T10:01:30.914Z,9.60
2022-10-13T10:02:42.366Z,9.07
2022-10-13T10:03:45.239Z,8.93
2022-10-13T10:04:47.604Z,9.77
2022-10-13T10:05:56.196Z,8.60
2022-10-13T10:06:58.407Z,8.75
2022-10-13T10:08:11.266Z,9.00
2022-10-13T10:09:37.346Z,10.45
2022-10-13T10:10:41.337Z,8.88
2022-10-13T10:11:47.670Z,9.05
2022-10-13T10:12:50.218Z,9.13
2022-10-13T10:13:52.813Z,8.73
2022-10-13T10:14:55.615Z,9.45
2022-10-13T10:16:38.634Z,9.73
2022-10-13T10:17:49.056Z,9.38
2022-10-13T10:18:59.094Z,9.02
2022-10-13T10:20:22.621Z,9.25
2022-10-13T10:21:34.791Z,8.93
2022-10-13T10:22:39.480Z,9.80
2022-10-13T10:23:57.255Z,8.38
2022-10-13T10:25:02.123Z,9.43
2022-10-13T10:26:20.776Z,9.23
2022-10-13T10:28:30.703Z,8.30
2022-10-13T10:29:58.303Z,10.15
2022-10-13T10:31:34.657Z,8.95
2022-10-13T10:32:58.520Z,8.88
2022-10-13T10:34:16.635Z,9.75
2022-10-13T10:35:33.170Z,8.80
2022-10-13T10:36:50.037Z,9.02
2022-10-13T10:38:16.367Z,11.02
2022-10-13T10:39:42.278Z,7.70
2022-10-13T10:41:14.594Z,9.23
2022-10-13T10:42:52.344Z,8.13
2022-10-13T10:44:08.485Z,8.57
2022-10-13T10:45:38.854Z,8.02
2022-10-13T10:46:46.949Z,8.85
2022-10-13T10:47:55.294Z,9.07
2022-10-13T10:49:02.678Z,8.82
2022-10-13T10:50:07.126Z,7.90
2022-10-13T10:51:11.411Z,9.60
2022-10-13T10:52:44.347Z,8.23
2022-10-13T10:54:18.550Z,9.65
2022-10-13T10:55:36.985Z,7.75
2022-10-13T10:56:44.644Z,7.85
2022-10-13T10:58:01.050Z,9.02
2022-10-13T10:59:43.124Z,7.95
2022-10-13T11:01:11.374Z,7.95
2022-10-13T11:02:46.206Z,7.38
2022-10-13T11:03:58.002Z,8.63
2022-10-13T11:05:05.308Z,8.20
2022-10-13T11:06:17.533Z,8.27
2022-10-13T11:07:22.591Z,9.07
2022-10-13T11:08:40.054Z,7.80
2022-10-13T11:09:42.231Z,7.65
2022-10-13T11:10:44.397Z,8.38
2022-10-13T11:11:47.067Z,7.78
2022-10-13T11:12:52.749Z,8.20
2022-10-13T11:14:06.165Z,7.93
2022-10-13T11:15:14.057Z,8.07
2022-10-13T11:16:41.152Z,8.18
2022-10-13T11:17:48.271Z,8.13
2022-10-13T11:19:05.345Z,7.88
2022-10-13T11:20:35.943Z,6.60
2022-10-13T11:22:04.066Z,7.47
2022-10-13T11:23:13.004Z,8.45
2022-10-13T11:24:33.485Z,7.10
2022-10-13T11:25:35.765Z,7.28
2022-10-13T11:26:42.956Z,8.30
2022-10-13T11:27:45.177Z,9.05
2022-10-13T11:28:47.997Z,8.35
2022-10-13T11:29:55.101Z,8.10
2022-10-13T11:31:24.221Z,7.43
2022-10-13T11:32:35.321Z,7.65
2022-10-13T11:33:38.546Z,7.28
2022-10-13T11:35:04.198Z,7.75
2022-10-13T11:36:43.761Z,7.95
2022-10-13T11:38:07.357Z,8.38
2022-10-13T11:39:28.533Z,8.23
2022-10-13T11:40:39.670Z,8.48
2022-10-13T11:41:46.539Z,7.93
2022-10-13T11:43:05.277Z,8.10
2022-10-13T11:44:36.805Z,8.35
2022-10-13T11:45:44.845Z,8.32
2022-10-13T11:47:11.418Z,7.90
2022-10-13T11:48:42.741Z,7.97
2022-10-13T11:50:00.808Z,8.15
2022-10-13T11:51:31.140Z,8.00
2022-10-13T11:52:48.317Z,8.50
2022-10-13T11:54:04.539Z,8.88
2022-10-13T11:55:18.645Z,8.02
2022-10-13T11:56:31.775Z,7.57
2022-10-13T11:57:33.937Z,8.70
2022-10-13T11:58:42.347Z,9.25
2022-10-13T11:59:47.489Z,8.95
2022-10-13T12:01:15.928Z,8.95
2022-10-13T12:02:19.315Z,9.60
2022-10-13T12:03:31.511Z,8.45
2022-10-13T12:04:33.673Z,8.77
2022-10-13T12:05:36.022Z,8.38
2022-10-13T12:06:40.363Z,8.65
2022-10-13T12:07:42.906Z,8.98
2022-10-13T12:08:47.896Z,9.18
2022-10-13T12:09:52.311Z,9.05
2022-10-13T12:10:59.939Z,8.30
2022-10-13T12:12:22.732Z,7.97
2022-10-13T12:13:28.323Z,8.10
2022-10-13T12:14:43.329Z,8.88
2022-10-13T12:15:45.843Z,10.35
2022-10-13T12:18:22.365Z,9.52
2022-10-13T12:19:27.452Z,8.60
2022-10-13T12:20:33.148Z,8.02
2022-10-13T12:21:52.105Z,7.78
2022-10-13T12:22:55.262Z,8.00
2022-10-13T12:24:08.435Z,8.10
2022-10-13T12:25:18.444Z,9.30
2022-10-13T12:26:22.935Z,8.32
2022-10-13T12:27:25.415Z,9.35
2022-10-13T12:28:43.115Z,7.82
2022-10-13T12:29:45.483Z,7.93
2022-10-13T12:30:57.218Z,8.13
2022-10-13T12:31:59.566Z,8.05
2022-10-13T12:33:02.238Z,8.55
2022-10-13T12:34:04.461Z,8.18
2022-10-13T12:35:28.458Z,9.20
2022-10-13T12:36:33.654Z,8.07
2022-10-13T12:37:37.322Z,8.68
2022-10-13T12:38:44.025Z,7.88
2022-10-13T12:39:46.290Z,8.63
2022-10-13T12:40:49.984Z,7.68
2022-10-13T12:41:53.274Z,7.85
2022-10-13T12:42:56.074Z,7.75
2022-10-13T12:44:01.135Z,7.20
2022-10-13T12:45:07.265Z,8.52
2022-10-13T12:46:09.787Z,8.88
2022-10-13T12:47:47.292Z,8.35
2022-10-13T12:48:51.211Z,8.25
2022-10-13T12:50:27.387Z,8.27
2022-10-13T12:51:29.574Z,8.63
2022-10-13T12:52:34.443Z,8.27
2022-10-13T12:53:38.047Z,8.38
2022-10-13T12:54:55.443Z,9.52
2022-10-13T12:56:00.709Z,7.60
2022-10-13T12:57:07.378Z,10.27
2022-10-13T12:58:20.011Z,10.20
2022-10-13T12:59:24.290Z,9.20
2022-10-13T13:00:28.836Z,9.30
2022-10-13T13:01:34.226Z,9.57
2022-10-13T13:02:36.435Z,10.70
2022-10-13T13:03:40.115Z,9.23
2022-10-13T13:04:43.828Z,9.65
2022-10-13T13:05:51.671Z,9.35
2022-10-13T13:06:58.717Z,11.57
2022-10-13T13:08:02.148Z,10.43
2022-10-13T13:09:24.235Z,10.15
2022-10-13T13:10:26.665Z,9.52
2022-10-13T13:11:37.480Z,9.43
2022-10-13T13:12:40.327Z,8.35
2022-10-13T13:13:49.238Z,8.73
2022-10-13T13:14:54.876Z,9.55
2022-10-13T13:16:23.224Z,8.40
2022-10-13T13:18:53.929Z,7.93
2022-10-13T13:19:57.416Z,8.55
2022-10-13T13:20:59.571Z,9.57
2022-10-13T13:22:03.865Z,9.45
2022-10-13T13:23:06.016Z,8.45
2022-10-13T13:24:21.735Z,7.65
2022-10-13T13:25:30.342Z,7.68
2022-10-13T13:26:32.466Z,7.45
2022-10-13T13:27:37.383Z,8.90
2022-10-13T13:28:44.590Z,9.32
2022-10-13T13:29:48.642Z,7.18
2022-10-13T13:30:50.749Z,7.35
2022-10-13T13:31:52.911Z,8.77
2022-10-13T13:32:55.132Z,10.23
2022-10-13T13:33:57.298Z,7.60
2022-10-13T13:34:59.427Z,7.50
2022-10-13T13:36:01.789Z,7.35
2022-10-13T13:37:03.916Z,7.20
2022-10-13T13:38:06.080Z,7.47
2022-10-13T13:39:18.305Z,7.20
2022-10-13T13:40:26.070Z,6.57
2022-10-13T13:41:30.973Z,6.78
2022-10-13T13:42:33.370Z,8.68
2022-10-13T13:43:35.480Z,8.40
2022-10-13T13:44:37.606Z,7.70
2022-10-13T13:45:39.903Z,8.07
2022-10-13T13:46:43.518Z,6.82
2022-10-13T13:47:47.195Z,6.63
2022-10-13T13:48:49.422Z,6.60
2022-10-13T13:49:56.185Z,6.63
2022-10-13T13:50:58.378Z,5.88
2022-10-13T13:52:01.731Z,6.32
2022-10-13T13:53:04.801Z,5.00
2022-10-13T13:54:06.966Z,5.57
2022-10-13T13:55:09.557Z,4.85
2022-10-13T13:56:14.056Z,5.55
2022-10-13T13:57:16.648Z,5.50
2022-10-13T13:58:18.836Z,4.72
2022-10-13T13:59:20.932Z,4.90
2022-10-13T14:00:28.130Z,4.65
2022-10-13T14:01:32.237Z,5.20
2022-10-13T14:02:34.556Z,5.70
2022-10-13T14:03:36.749Z,4.97
2022-10-13T14:04:40.993Z,5.47
2022-10-13T14:05:43.225Z,5.57
2022-10-13T14:06:45.691Z,4.60
2022-10-13T14:07:47.868Z,6.55
2022-10-13T14:08:50.235Z,5.43
2022-10-13T14:09:53.781Z,5.95
2022-10-13T14:10:58.126Z,5.60
2022-10-13T14:12:00.325Z,6.20
2022-10-13T14:13:02.439Z,6.50
2022-10-13T14:14:04.585Z,6.03
2022-10-13T14:15:07.317Z,5.82
2022-10-13T14:16:16.766Z,6.53
2022-10-13T14:17:18.920Z,6.43
2022-10-13T14:18:21.038Z,6.25
2022-10-13T14:19:23.254Z,6.75
2022-10-13T14:20:25.370Z,5.65
2022-10-13T14:21:27.496Z,6.90
2022-10-13T14:22:32.323Z,6.22
2022-10-13T14:23:35.465Z,6.28
2022-10-13T14:24:37.582Z,6.15
2022-10-13T14:25:39.940Z,6.57
2022-10-13T14:26:42.115Z,6.68
2022-10-13T14:27:45.798Z,5.68
2022-10-13T14:28:48.011Z,7.05
2022-10-13T14:29:50.243Z,7.05
2022-10-13T14:30:53.244Z,6.50
2022-10-13T14:31:55.440Z,7.88
2022-10-13T14:32:57.554Z,6.63
2022-10-13T14:34:01.099Z,8.25
2022-10-13T14:35:08.363Z,22.30
2022-10-13T14:36:10.906Z,31.48
2022-10-13T14:37:13.086Z,12.30
2022-10-13T14:38:15.229Z,7.97
2022-10-13T14:39:17.894Z,8.90
2022-10-13T14:40:20.044Z,14.48
2022-10-13T14:41:22.566Z,9.35
2022-10-13T14:42:24.884Z,11.45
2022-10-13T14:43:28.131Z,8.07
2022-10-13T14:44:30.330Z,8.57
2022-10-13T14:45:32.749Z,8.15
2022-10-13T14:46:34.902Z,18.95
2022-10-13T14:47:37.106Z,12.20
2022-10-13T14:48:39.370Z,9.73
2022-10-13T14:49:41.510Z,8.18
2022-10-13T14:50:44.265Z,7.97
2022-10-13T14:51:46.402Z,11.75
2022-10-13T14:52:48.575Z,9.55